Time;durP1;ratioP1;P1;durP2;ratioP2;P2;SDS_P1;SDS_P2;PMS_P1;PMS_P2;Temp;Humidity;BMP_temperature;BMP_pressure;BME280_temperature;BME280_humidity;BME280_pressure;Samples;Min_cycle;Max_cycle;Signal;HPM_P1;HPM_P2
2021/05/19 00:02:13;;;;;;;3.47;1.48;;;8.50;96.80;;;;;;4729751;30;20052;-82
2021/05/19 00:04:40;;;;;;;5.50;1.38;;;8.40;96.80;;;;;;4715915;30;20040;-82
2021/05/19 00:07:06;;;;;;;2.80;1.35;;;8.40;96.80;;;;;;4731721;30;20059;-82
2021/05/19 00:09:33;;;;;;;3.58;1.10;;;8.40;96.80;;;;;;4730931;30;20405;-82
2021/05/19 00:11:59;;;;;;;1.65;1.00;;;8.40;96.80;;;;;;4730216;30;20048;-82
2021/05/19 00:14:26;;;;;;;2.00;1.17;;;8.40;96.80;;;;;;4746490;30;20056;-82
2021/05/19 00:16:52;;;;;;;4.47;1.52;;;8.40;96.80;;;;;;4709620;30;20068;-82
2021/05/19 00:19:19;;;;;;;4.28;1.35;;;8.40;96.80;;;;;;4716945;30;20069;-82
2021/05/19 00:21:46;;;;;;;2.42;1.75;;;8.40;96.90;;;;;;4736075;30;20063;-82
2021/05/19 00:24:13;;;;;;;5.13;1.50;;;8.40;96.90;;;;;;4731355;30;20382;-82
2021/05/19 00:26:40;;;;;;;2.95;1.60;;;8.30;96.90;;;;;;4731430;30;20048;-82
2021/05/19 00:29:11;;;;;;;3.88;2.20;;;8.40;97.00;;;;;;4731536;30;20059;-82
2021/05/19 00:31:42;;;;;;;3.92;2.67;;;8.30;97.10;;;;;;4743965;30;20082;-82
2021/05/19 00:34:13;;;;;;;4.32;2.97;;;8.30;97.20;;;;;;4724573;30;20052;-82
2021/05/19 00:36:41;;;;;;;3.22;2.30;;;8.30;97.40;;;;;;4746891;30;20055;-83
2021/05/19 00:39:09;;;;;;;4.05;1.65;;;8.40;97.40;;;;;;4731212;30;20044;-83
2021/05/19 00:41:38;;;;;;;3.10;2.03;;;8.30;97.40;;;;;;4706929;30;20063;-81
2021/05/19 00:44:07;;;;;;;3.95;2.40;;;8.30;97.40;;;;;;4716299;30;20064;-81
2021/05/19 00:46:34;;;;;;;2.67;1.83;;;8.30;97.50;;;;;;4745581;30;20048;-81
2021/05/19 00:49:04;;;;;;;5.22;2.50;;;8.30;97.50;;;;;;4695229;30;20052;-81
2021/05/19 00:51:31;;;;;;;3.42;2.28;;;8.30;97.60;;;;;;4718566;30;20051;-81
2021/05/19 00:53:58;;;;;;;4.38;2.50;;;8.20;97.60;;;;;;4734490;30;20047;-81
2021/05/19 00:56:25;;;;;;;3.10;1.75;;;8.20;97.70;;;;;;4715269;30;20485;-82
2021/05/19 00:59:00;;;;;;;1.80;1.35;;;8.20;97.60;;;;;;4707511;30;20052;-81
2021/05/19 01:01:27;;;;;;;4.10;1.88;;;8.20;97.70;;;;;;4705936;30;20055;-81
2021/05/19 01:04:00;;;;;;;3.05;2.33;;;8.10;97.70;;;;;;4723922;30;20061;-81
2021/05/19 01:06:58;;;;;;;3.95;2.83;;;8.10;97.70;;;;;;4697022;30;20434;-81
2021/05/19 01:09:36;;;;;;;4.50;2.63;;;8.10;97.80;;;;;;4735936;30;20405;-81
2021/05/19 01:12:04;;;;;;;3.58;2.17;;;8.10;97.90;;;;;;4721211;30;20432;-81
2021/05/19 01:14:32;;;;;;;3.10;1.80;;;8.10;97.90;;;;;;4731938;30;20044;-81
2021/05/19 01:16:59;;;;;;;3.67;2.10;;;8.10;97.90;;;;;;4715942;30;20059;-82
2021/05/19 01:19:27;;;;;;;4.97;2.63;;;8.00;97.90;;;;;;4733794;30;20056;-82
2021/05/19 01:21:56;;;;;;;3.90;2.75;;;8.10;98.00;;;;;;4728365;30;20044;-82
2021/05/19 01:24:23;;;;;;;5.57;2.88;;;8.10;98.10;;;;;;4729371;30;20402;-81
2021/05/19 01:26:50;;;;;;;5.43;3.20;;;8.20;98.00;;;;;;4730302;30;20050;-81
2021/05/19 01:29:17;;;;;;;4.45;3.13;;;8.20;98.00;;;;;;4730098;30;20060;-82
2021/05/19 01:31:47;;;;;;;5.63;2.47;;;8.20;98.00;;;;;;4714433;30;20056;-82
2021/05/19 01:34:14;;;;;;;4.18;2.47;;;8.30;98.10;;;;;;4735854;30;20436;-82
2021/05/19 01:36:42;;;;;;;5.43;3.03;;;8.30;98.10;;;;;;4700162;30;20048;-83
2021/05/19 01:39:09;;;;;;;3.80;2.53;;;8.30;98.10;;;;;;4745593;30;20063;-83
2021/05/19 01:41:36;;;;;;;3.28;2.15;;;8.40;98.10;;;;;;4707898;30;20059;-82
2021/05/19 01:44:14;;;;;;;4.05;2.63;;;8.40;98.10;;;;;;4745895;30;20594;-82
2021/05/19 01:47:06;;;;;;;4.10;2.70;;;8.40;98.00;;;;;;4718695;30;20056;-83
2021/05/19 01:49:41;;;;;;;4.32;2.25;;;8.40;98.00;;;;;;4738606;30;20051;-82
2021/05/19 01:52:10;;;;;;;2.58;1.95;;;8.40;98.10;;;;;;4742583;30;20054;-82
2021/05/19 01:54:39;;;;;;;3.40;2.35;;;8.40;98.10;;;;;;4734874;30;20052;-82
2021/05/19 01:57:08;;;;;;;4.85;2.47;;;8.40;98.00;;;;;;4714959;30;20060;-83
2021/05/19 01:59:35;;;;;;;3.60;2.40;;;8.30;98.00;;;;;;4735067;30;20055;-82
2021/05/19 02:02:03;;;;;;;4.00;2.05;;;8.30;98.00;;;;;;4735822;30;20075;-82
2021/05/19 02:04:32;;;;;;;4.20;2.85;;;8.30;98.00;;;;;;4744001;30;20052;-82
2021/05/19 02:06:59;;;;;;;4.53;3.10;;;8.20;98.10;;;;;;4736776;30;20048;-82
2021/05/19 02:09:36;;;;;;;3.88;2.72;;;8.20;98.20;;;;;;4744650;30;20040;-82
2021/05/19 02:12:06;;;;;;;4.88;3.47;;;8.20;98.20;;;;;;4707255;30;20064;-82
2021/05/19 02:14:34;;;;;;;4.60;3.03;;;8.10;98.20;;;;;;4723042;30;20055;-82
2021/05/19 02:17:02;;;;;;;8.20;4.90;;;8.10;98.30;;;;;;4742933;30;20063;-82
2021/05/19 02:19:28;;;;;;;6.70;4.72;;;8.00;98.40;;;;;;4729366;30;20044;-82
2021/05/19 02:21:59;;;;;;;8.82;4.93;;;8.00;98.50;;;;;;4733222;30;20056;-83
2021/05/19 02:24:31;;;;;;;8.65;4.75;;;8.00;98.50;;;;;;4732939;30;20040;-82
2021/05/19 02:26:59;;;;;;;8.32;5.28;;;7.90;98.50;;;;;;4715882;30;20146;-82
2021/05/19 02:29:28;;;;;;;9.20;4.85;;;7.90;98.50;;;;;;4732344;30;20032;-82
2021/05/19 02:31:55;;;;;;;11.65;7.22;;;7.90;98.60;;;;;;4705890;30;20047;-81
2021/05/19 02:34:21;;;;;;;16.38;7.05;;;7.90;98.70;;;;;;4722739;30;20754;-82
2021/05/19 02:36:53;;;;;;;13.05;6.05;;;7.90;98.70;;;;;;4746574;30;20055;-82
2021/05/19 02:39:21;;;;;;;12.18;6.78;;;7.90;98.80;;;;;;4726931;30;20055;-82
2021/05/19 02:41:53;;;;;;;11.50;6.75;;;7.80;98.80;;;;;;4746476;30;20051;-83
2021/05/19 02:44:20;;;;;;;9.77;5.93;;;7.80;98.80;;;;;;4705563;30;20408;-82
2021/05/19 02:46:46;;;;;;;10.32;7.03;;;7.80;98.80;;;;;;4725590;30;20060;-82
2021/05/19 02:49:13;;;;;;;9.65;5.85;;;7.80;98.90;;;;;;4733312;30;20063;-82
2021/05/19 02:51:40;;;;;;;11.60;6.68;;;7.80;98.90;;;;;;4715443;30;20535;-82
2021/05/19 02:54:08;;;;;;;10.30;6.15;;;7.80;98.90;;;;;;4732430;30;20068;-82
2021/05/19 02:56:35;;;;;;;11.85;6.78;;;7.80;98.90;;;;;;4718117;30;20397;-82
2021/05/19 02:59:03;;;;;;;9.75;5.97;;;7.80;99.00;;;;;;4726614;30;20048;-82
2021/05/19 03:01:30;;;;;;;10.25;5.82;;;7.70;99.00;;;;;;4722785;30;20055;-82
2021/05/19 03:03:57;;;;;;;9.90;6.85;;;7.70;99.00;;;;;;4745958;30;20067;-82
2021/05/19 03:06:23;;;;;;;8.30;5.65;;;7.70;99.00;;;;;;4714102;30;20040;-82
2021/05/19 03:08:51;;;;;;;9.45;6.15;;;7.70;99.10;;;;;;4735139;30;20055;-82
2021/05/19 03:11:17;;;;;;;8.05;5.75;;;7.70;99.00;;;;;;4725846;30;20047;-82
2021/05/19 03:13:45;;;;;;;9.23;5.38;;;7.70;99.00;;;;;;4725547;30;20051;-82
2021/05/19 03:16:11;;;;;;;9.60;6.80;;;7.70;99.10;;;;;;4713043;30;20059;-82
2021/05/19 03:18:38;;;;;;;10.65;6.68;;;7.60;99.10;;;;;;4732676;30;20040;-82
2021/05/19 03:21:05;;;;;;;9.27;6.95;;;7.70;99.10;;;;;;4716418;30;20056;-82
2021/05/19 03:23:32;;;;;;;11.43;7.25;;;7.70;99.10;;;;;;4723107;30;20048;-82
2021/05/19 03:26:00;;;;;;;6.97;5.65;;;7.70;99.10;;;;;;4733444;30;20047;-82
2021/05/19 03:28:27;;;;;;;8.52;6.03;;;7.70;99.10;;;;;;4726292;30;20047;-82
2021/05/19 03:30:54;;;;;;;6.20;5.25;;;7.80;99.10;;;;;;4730401;30;20062;-82
2021/05/19 03:33:21;;;;;;;7.10;5.32;;;7.80;99.10;;;;;;4732918;30;20052;-82
2021/05/19 03:35:48;;;;;;;7.82;4.82;;;7.80;99.10;;;;;;4720052;30;20052;-82
2021/05/19 03:38:16;;;;;;;8.70;5.35;;;7.90;99.00;;;;;;4746803;30;20060;-82
2021/05/19 03:40:43;;;;;;;13.57;6.85;;;7.90;99.00;;;;;;4726677;30;20063;-82
2021/05/19 03:43:10;;;;;;;8.10;5.00;;;7.90;99.00;;;;;;4719209;30;20420;-82
2021/05/19 03:45:36;;;;;;;7.68;5.13;;;8.00;99.00;;;;;;4722020;30;20048;-82
2021/05/19 03:48:03;;;;;;;6.60;5.43;;;8.00;99.00;;;;;;4746742;30;20056;-82
2021/05/19 03:50:30;;;;;;;6.93;5.50;;;8.10;99.00;;;;;;4716074;30;20068;-82
2021/05/19 03:52:58;;;;;;;8.52;6.25;;;8.10;99.00;;;;;;4731827;30;20056;-82
2021/05/19 03:55:25;;;;;;;6.88;5.47;;;8.20;99.00;;;;;;4717589;30;20818;-82
2021/05/19 03:57:52;;;;;;;6.18;5.55;;;8.30;99.00;;;;;;4719850;30;20048;-82
2021/05/19 04:00:22;;;;;;;7.25;5.70;;;8.30;99.00;;;;;;4715938;30;20056;-82
2021/05/19 04:02:49;;;;;;;7.93;5.95;;;8.40;98.90;;;;;;4745370;30;20428;-82
2021/05/19 04:05:27;;;;;;;6.97;5.63;;;8.50;98.90;;;;;;4730539;30;20056;-82
2021/05/19 04:07:55;;;;;;;7.85;6.68;;;8.60;98.90;;;;;;4727779;30;20891;-82
2021/05/19 04:10:22;;;;;;;11.15;7.10;;;8.70;98.90;;;;;;4744548;30;20052;-82
2021/05/19 04:12:50;;;;;;;9.70;6.95;;;8.80;98.80;;;;;;4724473;30;20059;-83
2021/05/19 04:15:18;;;;;;;11.98;7.50;;;8.90;98.80;;;;;;4709605;30;20052;-82
2021/05/19 04:17:45;;;;;;;8.32;7.47;;;8.90;98.80;;;;;;4710162;30;20055;-82
2021/05/19 04:20:13;;;;;;;11.35;6.95;;;9.00;98.80;;;;;;4744517;30;20044;-82
2021/05/19 04:22:39;;;;;;;8.90;5.72;;;9.00;98.80;;;;;;4734178;30;20075;-83
2021/05/19 04:25:07;;;;;;;8.70;7.25;;;9.10;98.70;;;;;;4729004;30;20040;-83
2021/05/19 04:27:34;;;;;;;7.88;6.47;;;9.20;98.80;;;;;;4745274;30;20040;-83
2021/05/19 04:30:00;;;;;;;8.32;6.65;;;9.20;98.70;;;;;;4714477;30;20064;-82
2021/05/19 04:32:27;;;;;;;7.28;6.57;;;9.20;98.70;;;;;;4716821;30;20048;-82
2021/05/19 04:34:54;;;;;;;8.02;6.63;;;9.30;98.70;;;;;;4730982;30;20051;-81
2021/05/19 04:37:20;;;;;;;8.13;7.15;;;9.30;98.70;;;;;;4745974;30;20052;-82
2021/05/19 04:39:47;;;;;;;9.50;6.80;;;9.40;98.60;;;;;;4708738;30;20490;-81
2021/05/19 04:42:13;;;;;;;10.57;8.70;;;9.40;98.70;;;;;;4708966;30;20052;-82
2021/05/19 04:44:40;;;;;;;9.10;7.85;;;9.50;98.70;;;;;;4729019;30;20552;-83
2021/05/19 04:47:06;;;;;;;8.65;6.55;;;9.50;98.70;;;;;;4736119;30;20036;-83
2021/05/19 04:49:33;;;;;;;8.32;6.72;;;9.50;98.70;;;;;;4740492;30;20079;-85
2021/05/19 04:51:59;;;;;;;7.45;6.68;;;9.60;98.70;;;;;;4744268;30;20390;-83
2021/05/19 04:54:26;;;;;;;8.70;7.72;;;9.60;98.70;;;;;;4725076;30;20412;-83
2021/05/19 04:56:53;;;;;;;8.38;6.72;;;9.60;98.70;;;;;;4706368;30;20063;-81
2021/05/19 04:59:20;;;;;;;15.23;9.32;;;9.70;98.70;;;;;;4740600;30;20063;-82
2021/05/19 05:01:46;;;;;;;12.18;8.93;;;9.70;98.60;;;;;;4733405;30;20052;-79
2021/05/19 05:04:13;;;;;;;11.40;8.25;;;9.80;98.60;;;;;;4744626;30;20052;-80
2021/05/19 05:06:39;;;;;;;8.93;7.45;;;9.80;98.60;;;;;;4745353;30;20056;-80
2021/05/19 05:09:15;;;;;;;6.90;6.20;;;9.80;98.60;;;;;;4723338;30;20044;-79
2021/05/19 05:11:41;;;;;;;9.45;6.38;;;9.90;98.70;;;;;;4744063;30;20509;-80
2021/05/19 05:14:08;;;;;;;11.32;7.57;;;10.00;98.60;;;;;;4745360;30;20059;-80
2021/05/19 05:16:34;;;;;;;8.88;7.38;;;10.00;98.60;;;;;;4729800;30;20048;-80
2021/05/19 05:19:01;;;;;;;7.82;7.03;;;10.10;98.60;;;;;;4729627;30;20408;-79
2021/05/19 05:21:27;;;;;;;9.70;6.03;;;10.10;98.50;;;;;;4728088;30;20048;-80
2021/05/19 05:23:54;;;;;;;7.72;6.78;;;10.20;98.50;;;;;;4720104;30;20401;-80
2021/05/19 05:26:20;;;;;;;7.85;6.15;;;10.20;98.50;;;;;;4715419;30;20051;-80
2021/05/19 05:28:47;;;;;;;6.43;5.80;;;10.30;98.50;;;;;;4729580;30;20052;-79
2021/05/19 05:31:13;;;;;;;7.38;6.00;;;10.40;98.40;;;;;;4728247;30;20492;-82
2021/05/19 05:33:40;;;;;;;9.63;7.63;;;10.50;98.40;;;;;;4742978;30;20060;-82
2021/05/19 05:36:06;;;;;;;10.10;8.27;;;10.60;98.30;;;;;;4744873;30;20496;-82
2021/05/19 05:38:33;;;;;;;8.93;6.55;;;10.70;98.20;;;;;;4729853;30;20047;-82
2021/05/19 05:41:00;;;;;;;8.27;6.93;;;10.70;98.10;;;;;;4741372;30;20461;-82
2021/05/19 05:43:27;;;;;;;8.80;7.38;;;10.90;98.10;;;;;;4727514;30;20048;-82
2021/05/19 05:45:53;;;;;;;10.18;6.63;;;10.90;98.00;;;;;;4742714;30;20048;-82
2021/05/19 05:48:20;;;;;;;12.27;8.52;;;11.00;97.90;;;;;;4691606;30;20044;-82
2021/05/19 05:50:46;;;;;;;8.55;7.05;;;11.00;97.90;;;;;;4697115;30;20520;-83
2021/05/19 05:53:13;;;;;;;8.80;7.47;;;11.10;97.90;;;;;;4727311;30;20052;-81
2021/05/19 05:55:40;;;;;;;10.15;7.85;;;11.10;97.90;;;;;;4727813;30;20496;-80
2021/05/19 05:58:06;;;;;;;8.55;7.68;;;11.20;97.80;;;;;;4742574;30;20488;-82
2021/05/19 06:00:33;;;;;;;11.95;8.65;;;11.30;97.80;;;;;;4699510;30;20056;-81
2021/05/19 06:02:59;;;;;;;10.90;8.48;;;11.40;97.80;;;;;;4727213;30;20052;-80
2021/05/19 06:05:26;;;;;;;9.32;6.80;;;11.50;97.80;;;;;;4742009;30;20048;-83
2021/05/19 06:07:52;;;;;;;10.50;7.18;;;11.70;97.60;;;;;;4742339;30;20044;-83
2021/05/19 06:10:19;;;;;;;10.57;7.40;;;11.80;97.50;;;;;;4724985;30;20052;-84
2021/05/19 06:12:45;;;;;;;11.70;8.82;;;11.90;97.40;;;;;;4741641;30;20067;-81
2021/05/19 06:15:12;;;;;;;11.30;8.70;;;11.90;97.20;;;;;;4740265;30;20051;-81
2021/05/19 06:17:38;;;;;;;12.65;9.23;;;11.90;97.10;;;;;;4727610;30;20040;-81
2021/05/19 06:20:05;;;;;;;11.75;8.88;;;11.80;97.20;;;;;;4724345;30;20052;-81
2021/05/19 06:22:32;;;;;;;10.00;7.50;;;11.90;97.30;;;;;;4734536;30;20052;-81
2021/05/19 06:24:58;;;;;;;12.60;8.55;;;12.00;97.40;;;;;;4729581;30;20040;-81
2021/05/19 06:27:25;;;;;;;15.65;10.80;;;12.10;97.10;;;;;;4745511;30;20056;-81
2021/05/19 06:29:52;;;;;;;12.18;8.77;;;12.30;97.00;;;;;;4731157;30;20129;-81
2021/05/19 06:32:18;;;;;;;12.80;8.95;;;12.50;97.00;;;;;;4713775;30;20397;-81
2021/05/19 06:34:45;;;;;;;14.55;9.25;;;12.90;96.90;;;;;;4745489;30;20055;-81
2021/05/19 06:37:12;;;;;;;15.07;9.65;;;13.40;96.40;;;;;;4729022;30;20080;-81
2021/05/19 06:39:38;;;;;;;12.50;10.15;;;13.60;95.70;;;;;;4742798;30;20489;-81
2021/05/19 06:42:05;;;;;;;19.58;10.10;;;13.70;95.30;;;;;;4730770;30;20056;-81
2021/05/19 06:44:32;;;;;;;13.98;10.23;;;13.70;95.10;;;;;;4743254;30;20886;-81
2021/05/19 06:46:58;;;;;;;15.90;9.88;;;13.70;95.00;;;;;;4729032;30;20051;-81
2021/05/19 06:49:25;;;;;;;18.48;11.75;;;13.70;94.80;;;;;;4742580;30;20052;-81
2021/05/19 06:51:52;;;;;;;16.08;11.48;;;13.70;94.80;;;;;;4742274;30;20524;-81
2021/05/19 06:54:18;;;;;;;14.80;11.25;;;13.70;94.80;;;;;;4715048;30;20051;-81
2021/05/19 06:56:45;;;;;;;19.42;13.02;;;13.80;94.80;;;;;;4742987;30;20091;-81
2021/05/19 06:59:17;;;;;;;16.10;11.98;;;13.80;94.50;;;;;;4720177;30;20048;-81
2021/05/19 07:01:45;;;;;;;20.05;13.55;;;13.80;94.50;;;;;;4727522;30;20048;-81
2021/05/19 07:04:12;;;;;;;20.25;14.02;;;13.90;94.60;;;;;;4729650;30;20044;-80
2021/05/19 07:06:39;;;;;;;14.88;12.70;;;13.80;94.40;;;;;;4743913;30;20060;-81
2021/05/19 07:09:06;;;;;;;17.92;12.18;;;13.80;94.30;;;;;;4736062;30;20083;-81
2021/05/19 07:11:33;;;;;;;18.30;13.30;;;13.80;94.30;;;;;;4745867;30;20351;-81
2021/05/19 07:14:01;;;;;;;15.00;12.27;;;13.80;94.40;;;;;;4710958;30;20051;-81
2021/05/19 07:16:27;;;;;;;16.90;13.73;;;13.80;94.30;;;;;;4746930;30;20056;-81
2021/05/19 07:18:56;;;;;;;18.50;14.25;;;13.90;94.30;;;;;;4732731;30;20051;-81
2021/05/19 07:21:23;;;;;;;16.80;12.07;;;14.00;94.30;;;;;;4745919;30;20489;-81
2021/05/19 07:23:51;;;;;;;24.05;17.58;;;14.00;94.20;;;;;;4734646;30;20587;-81
2021/05/19 07:26:20;;;;;;;23.17;15.05;;;14.10;94.00;;;;;;4747516;30;20048;-81
2021/05/19 07:28:47;;;;;;;21.15;14.55;;;14.10;93.90;;;;;;4748856;30;20051;-81
2021/05/19 07:31:13;;;;;;;20.48;15.20;;;14.10;93.90;;;;;;4738763;30;20032;-81
2021/05/19 07:33:40;;;;;;;17.23;13.95;;;14.20;93.90;;;;;;4732415;30;20424;-81
2021/05/19 07:36:06;;;;;;;19.05;14.32;;;14.20;93.80;;;;;;4747027;30;20060;-81
2021/05/19 07:38:33;;;;;;;17.05;12.75;;;14.30;93.80;;;;;;4732005;30;20044;-80
2021/05/19 07:41:00;;;;;;;23.13;15.10;;;14.40;93.80;;;;;;4746095;30;20932;-80
2021/05/19 07:43:26;;;;;;;24.00;15.45;;;14.50;93.60;;;;;;4746910;30;20413;-83
2021/05/19 07:45:53;;;;;;;17.52;12.70;;;14.60;93.50;;;;;;4730151;30;20592;-81
2021/05/19 07:48:19;;;;;;;21.23;15.45;;;14.60;93.40;;;;;;4706502;30;20036;-82
2021/05/19 07:50:46;;;;;;;21.00;15.82;;;14.70;93.30;;;;;;4743353;30;20060;-81
2021/05/19 07:53:13;;;;;;;25.35;15.32;;;14.70;93.10;;;;;;4701599;30;20071;-79
2021/05/19 07:55:46;;;;;;;23.83;16.38;;;14.70;93.00;;;;;;4731183;30;20050;-84
2021/05/19 07:58:26;;;;;;;21.42;15.10;;;14.80;92.90;;;;;;4718169;30;20409;-82
2021/05/19 08:03:22;;;;;;;19.83;14.43;;;14.70;92.80;;;;;;4746007;30;20059;-80
2021/05/19 08:05:49;;;;;;;17.13;11.98;;;14.70;92.90;;;;;;4730667;30;20070;-80
2021/05/19 08:08:15;;;;;;;19.50;13.55;;;14.80;92.90;;;;;;4731575;30;20055;-80
2021/05/19 08:10:43;;;;;;;22.15;12.80;;;14.90;92.60;;;;;;4730266;30;20044;-80
2021/05/19 08:13:10;;;;;;;20.98;13.50;;;15.10;92.50;;;;;;4730731;30;20055;-80
2021/05/19 08:15:37;;;;;;;21.67;13.75;;;15.30;92.20;;;;;;4746009;30;20485;-80
2021/05/19 08:18:11;;;;;;;22.40;14.13;;;15.50;92.10;;;;;;4747140;30;20071;-80
2021/05/19 08:20:38;;;;;;;20.20;13.63;;;15.80;91.90;;;;;;4729167;30;20424;-80
2021/05/19 08:23:05;;;;;;;21.50;14.90;;;16.00;91.30;;;;;;4721099;30;20036;-80
2021/05/19 08:25:32;;;;;;;19.73;13.82;;;16.10;90.80;;;;;;4745361;30;20413;-80
2021/05/19 08:27:58;;;;;;;20.05;13.85;;;16.00;90.60;;;;;;4734417;30;20853;-80
2021/05/19 08:30:25;;;;;;;20.15;11.60;;;15.80;90.60;;;;;;4729825;30;20067;-80
2021/05/19 08:32:52;;;;;;;18.67;12.10;;;15.70;90.80;;;;;;4731873;30;20052;-80
2021/05/19 08:35:19;;;;;;;18.42;11.80;;;15.50;91.00;;;;;;4746199;30;20051;-80
2021/05/19 08:37:45;;;;;;;16.80;11.35;;;15.40;91.00;;;;;;4745074;30;20056;-80
2021/05/19 08:40:12;;;;;;;17.05;10.80;;;15.30;91.20;;;;;;4745267;30;20079;-80
2021/05/19 08:42:39;;;;;;;16.45;11.20;;;15.30;91.10;;;;;;4744007;30;20060;-80
2021/05/19 08:45:08;;;;;;;14.35;11.23;;;15.40;91.10;;;;;;4743550;30;20063;-80
2021/05/19 08:47:35;;;;;;;16.33;11.25;;;15.50;91.00;;;;;;4720253;30;20047;-80
2021/05/19 08:50:05;;;;;;;15.13;9.88;;;15.50;90.60;;;;;;4741246;30;20059;-81
2021/05/19 08:52:37;;;;;;;14.98;8.65;;;15.70;90.60;;;;;;4746621;30;20044;-81
2021/05/19 08:55:15;;;;;;;14.93;9.77;;;15.80;90.40;;;;;;4745333;30;20040;-78
2021/05/19 08:57:41;;;;;;;16.20;11.10;;;15.80;90.10;;;;;;4729074;30;20048;-78
2021/05/19 09:00:10;;;;;;;14.85;10.38;;;15.90;90.10;;;;;;4743651;30;20059;-78
2021/05/19 09:02:37;;;;;;;11.88;9.40;;;15.90;90.10;;;;;;4729398;30;20063;-78
2021/05/19 09:05:06;;;;;;;16.10;12.18;;;16.00;90.00;;;;;;4728133;30;20036;-79
2021/05/19 09:07:36;;;;;;;15.10;10.02;;;16.10;89.50;;;;;;4745281;30;20051;-79
2021/05/19 09:10:17;;;;;;;13.35;8.73;;;16.20;89.00;;;;;;4706628;30;20412;-80
2021/05/19 09:12:43;;;;;;;16.02;9.40;;;16.40;88.80;;;;;;4712707;30;20063;-80
2021/05/19 09:15:13;;;;;;;15.85;9.93;;;16.60;88.10;;;;;;4721056;30;20614;-80
2021/05/19 09:17:40;;;;;;;11.27;8.45;;;16.70;87.20;;;;;;4744903;30;20056;-78
2021/05/19 09:20:07;;;;;;;16.02;9.57;;;17.00;87.10;;;;;;4743319;30;20051;-80
2021/05/19 09:22:39;;;;;;;13.70;9.75;;;17.30;86.50;;;;;;4714779;30;20048;-78
2021/05/19 09:25:30;;;;;;;19.50;12.55;;;17.80;85.60;;;;;;4728129;30;20043;-78
2021/05/19 09:27:59;;;;;;;10.88;8.18;;;18.20;83.90;;;;;;4716967;30;20043;-79
2021/05/19 09:30:40;;;;;;;12.10;9.10;;;18.70;83.10;;;;;;4734222;30;20048;-79
2021/05/19 09:33:20;;;;;;;12.07;8.75;;;18.90;80.70;;;;;;4728045;30;20051;-79
2021/05/19 09:36:20;;;;;;;9.77;8.10;;;18.90;79.90;;;;;;4740628;30;20040;-79
2021/05/19 09:38:53;;;;;;;14.43;8.38;;;18.90;79.60;;;;;;4742955;30;20043;-79
2021/05/19 09:41:29;;;;;;;13.75;8.10;;;19.10;79.70;;;;;;4744235;30;20044;-79
2021/05/19 09:43:58;;;;;;;17.90;9.90;;;19.30;78.70;;;;;;4743461;30;20078;-79
2021/05/19 09:46:34;;;;;;;13.48;10.27;;;19.40;77.90;;;;;;4715688;30;20060;-79
2021/05/19 09:49:11;;;;;;;13.02;9.52;;;19.40;76.60;;;;;;4743257;30;20488;-79
2021/05/19 09:51:39;;;;;;;13.43;9.48;;;19.20;76.70;;;;;;4742623;30;20051;-79
2021/05/19 09:54:23;;;;;;;14.50;9.10;;;19.00;77.00;;;;;;4742199;30;20071;-79
2021/05/19 09:56:59;;;;;;;17.10;11.02;;;18.60;77.40;;;;;;4728545;30;20060;-79
2021/05/19 09:59:26;;;;;;;15.10;10.15;;;18.30;78.50;;;;;;4730697;30;20051;-79
2021/05/19 10:01:54;;;;;;;13.57;9.07;;;17.90;78.90;;;;;;4731626;30;20063;-79
2021/05/19 10:04:22;;;;;;;12.57;8.27;;;17.70;80.30;;;;;;4740434;30;20063;-79
2021/05/19 10:06:49;;;;;;;15.85;8.38;;;17.70;80.80;;;;;;4727002;30;20051;-80
2021/05/19 10:09:16;;;;;;;12.88;8.43;;;17.90;81.00;;;;;;4713858;30;20051;-79
2021/05/19 10:11:44;;;;;;;16.33;9.88;;;18.30;80.30;;;;;;4727382;30;20048;-81
2021/05/19 10:14:14;;;;;;;11.70;6.57;;;18.50;79.10;;;;;;4728003;30;20048;-81
2021/05/19 10:16:45;;;;;;;12.68;8.38;;;18.80;79.00;;;;;;4727010;30;20067;-81
2021/05/19 10:19:17;;;;;;;14.13;10.35;;;19.20;77.60;;;;;;4727310;30;20071;-80
2021/05/19 10:21:45;;;;;;;13.25;8.27;;;19.30;76.60;;;;;;4727741;30;20040;-80
2021/05/19 10:24:14;;;;;;;12.02;7.55;;;19.20;76.50;;;;;;4714926;30;20059;-81
2021/05/19 10:26:59;;;;;;;9.10;7.18;;;19.00;78.50;;;;;;4719156;30;20075;-81
2021/05/19 10:29:48;;;;;;;9.13;6.40;;;18.80;80.90;;;;;;4727656;30;20048;-81
2021/05/19 10:32:28;;;;;;;10.73;8.02;;;18.80;82.40;;;;;;4712925;30;20524;-82
2021/05/19 10:35:05;;;;;;;11.50;7.68;;;19.20;82.50;;;;;;4744771;30;20055;-81
2021/05/19 10:37:32;;;;;;;10.70;7.85;;;19.60;82.50;;;;;;4726818;30;20036;-81
2021/05/19 10:40:07;;;;;;;10.25;7.70;;;19.70;79.90;;;;;;4741896;30;20037;-81
2021/05/19 10:42:41;;;;;;;9.52;7.68;;;19.60;79.20;;;;;;4731400;30;20052;-83
2021/05/19 10:45:13;;;;;;;14.75;9.75;;;19.20;78.90;;;;;;4717824;30;20528;-83
2021/05/19 10:47:45;;;;;;;17.10;10.63;;;18.80;79.10;;;;;;4729829;30;20052;-83
2021/05/19 10:58:58;;;;;;;1.45;0.40;;;17.40;74.30;;;;;;4726367;30;20068;-82
2021/05/19 11:01:37;;;;;;;1.70;0.30;;;16.50;74.70;;;;;;4727672;30;20623;-82
2021/05/19 11:04:20;;;;;;;2.03;0.17;;;15.80;76.20;;;;;;4728381;30;20052;-82
2021/05/19 11:07:02;;;;;;;1.80;0.28;;;15.30;77.80;;;;;;4726944;30;20069;-82
2021/05/19 11:09:31;;;;;;;0.45;0.20;;;14.80;79.20;;;;;;4728560;30;20044;-83
2021/05/19 11:12:17;;;;;;;0.60;0.20;;;14.40;80.20;;;;;;4709934;30;20397;-84
2021/05/19 11:14:50;;;;;;;0.22;0.10;;;13.90;83.10;;;;;;4727102;30;20793;-86
2021/05/19 11:20:09;;;;;;;3.08;0.35;;;12.90;88.20;;;;;;4727545;30;20072;-83
2021/05/19 11:22:36;;;;;;;2.47;0.20;;;12.30;90.20;;;;;;4726652;30;20425;-82
2021/05/19 11:25:05;;;;;;;1.55;0.10;;;11.80;91.60;;;;;;4713148;30;20049;-81
2021/05/19 11:27:34;;;;;;;1.05;0.20;;;11.50;93.00;;;;;;4699541;30;20045;-81
2021/05/19 11:30:04;;;;;;;1.38;0.52;;;11.30;94.00;;;;;;4712725;30;20409;-82
2021/05/19 11:32:35;;;;;;;2.10;0.60;;;11.20;94.60;;;;;;4719336;30;20482;-84
2021/05/19 11:35:16;;;;;;;0.77;0.30;;;11.10;95.20;;;;;;4726984;30;20040;-83
2021/05/19 11:37:55;;;;;;;0.90;0.40;;;10.90;95.70;;;;;;4701138;30;20513;-84
2021/05/19 11:40:22;;;;;;;0.45;0.20;;;10.90;96.30;;;;;;4727297;30;20052;-84
2021/05/19 11:42:57;;;;;;;0.73;0.10;;;10.90;96.50;;;;;;4729032;30;20077;-82
2021/05/19 11:45:25;;;;;;;1.08;0.20;;;10.80;96.90;;;;;;4733388;30;20048;-83
2021/05/19 11:47:52;;;;;;;0.93;0.10;;;10.70;97.30;;;;;;4745441;30;20032;-83
2021/05/19 11:50:33;;;;;;;0.85;0.20;;;10.70;97.70;;;;;;4714899;30;20556;-83
2021/05/19 11:53:09;;;;;;;0.82;0.20;;;10.70;98.00;;;;;;4729067;30;20048;-82
2021/05/19 11:55:42;;;;;;;2.80;0.22;;;10.70;98.20;;;;;;4745698;30;20051;-83
2021/05/19 11:58:10;;;;;;;;;;;10.60;98.60;;;;;;4730443;30;20412;-81
2021/05/19 12:00:52;;;;;;;2.92;0.70;;;10.70;98.90;;;;;;4729667;30;19918;-82
2021/05/19 12:03:21;;;;;;;2.78;0.50;;;10.70;99.20;;;;;;4730032;30;20158;-82
2021/05/19 12:05:53;;;;;;;1.55;0.30;;;10.80;99.00;;;;;;4716453;30;20489;-83
2021/05/19 12:08:23;;;;;;;2.47;0.30;;;10.80;99.20;;;;;;4729589;30;20579;-85
2021/05/19 12:11:18;;;;;;;0.52;0.20;;;10.80;99.40;;;;;;4745076;30;20392;-82
2021/05/19 12:13:54;;;;;;;0.77;0.20;;;10.80;99.50;;;;;;4743912;30;20460;-85
2021/05/19 12:16:32;;;;;;;0.80;0.22;;;10.80;99.60;;;;;;4749318;30;20036;-85
2021/05/19 12:19:10;;;;;;;0.52;0.30;;;10.90;99.80;;;;;;4727700;30;20044;-86
2021/05/19 12:21:41;;;;;;;0.50;0.20;;;11.00;99.90;;;;;;4743183;30;20047;-85
2021/05/19 12:24:09;;;;;;;1.63;0.32;;;11.10;99.90;;;;;;4730113;30;20081;-85
2021/05/19 12:26:38;;;;;;;2.00;0.20;;;11.20;99.90;;;;;;4744998;30;20048;-85
2021/05/19 12:29:34;;;;;;;1.30;0.20;;;11.40;99.90;;;;;;4744129;30;20059;-85
2021/05/19 12:32:30;;;;;;;0.98;0.25;;;11.60;99.90;;;;;;4743146;30;20048;-85
2021/05/19 12:35:16;;;;;;;0.43;0.20;;;11.80;99.90;;;;;;4700572;30;20065;-86
2021/05/19 12:37:48;;;;;;;0.77;0.20;;;11.90;99.90;;;;;;4728670;30;20059;-85
2021/05/19 12:40:19;;;;;;;0.45;0.20;;;12.00;99.90;;;;;;4743282;30;20047;-85
2021/05/19 12:42:52;;;;;;;1.30;0.30;;;12.20;99.90;;;;;;4744223;30;20063;-76
2021/05/19 12:45:23;;;;;;;;;;;12.30;99.90;;;;;;4728886;30;20055;-77
2021/05/19 12:48:08;;;;;;;6.90;1.30;;;12.50;99.90;;;;;;4728758;30;20283;-76
2021/05/19 12:50:52;;;;;;;1.25;0.52;;;12.70;99.90;;;;;;4742439;30;20040;-75
2021/05/19 12:53:31;;;;;;;1.77;0.50;;;12.80;99.90;;;;;;4743014;30;20063;-76
2021/05/19 12:55:59;;;;;;;2.38;0.55;;;13.10;99.90;;;;;;4744872;30;20044;-78
2021/05/19 12:58:28;;;;;;;0.93;0.30;;;13.30;99.90;;;;;;4742918;30;20373;-78
2021/05/19 13:01:02;;;;;;;2.58;0.50;;;13.50;99.90;;;;;;4713986;30;20496;-78
2021/05/19 13:03:35;;;;;;;0.95;0.30;;;13.70;99.90;;;;;;4730762;30;20059;-79
2021/05/19 13:06:04;;;;;;;1.85;0.40;;;14.00;99.90;;;;;;4741836;30;20044;-79
2021/05/19 13:08:32;;;;;;;3.17;0.60;;;14.10;99.90;;;;;;4716853;30;20075;-80
2021/05/19 13:11:00;;;;;;;3.28;0.30;;;14.20;99.90;;;;;;4744376;30;20040;-80
2021/05/19 13:13:33;;;;;;;1.13;0.30;;;14.30;99.90;;;;;;4704282;30;20048;-80